Dades meteomassalio
Diari Summary for Octubre 23, 2017 Units:  English    Metric   Both
« Previous Day
Next Day »
Diari Semanal Mensual Anual Personalitzat
  Maxima: Minima: Mijana:
Temperatura: TemperatureC °F 3.3 °F 11.7 °F
Rosada: DewpointC °F -1.5 °F 3.4 °F
Humitat: Humidity % 32 % 59 %
Velocitat del vent: WindSpeedKMH mph 0.0 mph 11 mph
Racha vent: WindSpeedGustKMH mph - -
Vent:- - SSW
Pressio: PressurehPa in 1026.3 in -
Pluja: 0.0 in    
Historical Graphs
 
 
Tabular Data for Octubre 23, 2017
Time Temperature Dew Point Pressure Wind Wind Speed Wind Gust Humidity Rainfall Rate (Hourly) solar Conditions
TemperatureC °F DewpointC °F PressurehPa in Calm     Humidity % HourlyPrecipMM in SolarRadiationWatts/m^2 W/m2 Conditions
00:03 10.6 °F 4.7 °F 1029.3 in SSW 20.4 mph 20.4 mph 67 % 0.0 in 0.0 W/m2 CLR
00:08 10.6 °F 4.7 °F 1029.7 in SSW 20.4 mph 20.4 mph 67 % 0.0 in 0.0 W/m2 CLR
00:13 11.7 °F 5.7 °F 1029.3 in South 24.1 mph 24.1 mph 67 % 0.0 in 0.0 W/m2 CLR
00:18 11.1 °F 5.4 °F 1029.3 in South 18.5 mph 18.5 mph 68 % 0.0 in 0.0 W/m2 CLR
00:23 11.1 °F 5.4 °F 1029.3 in SSW 18.5 mph 18.5 mph 68 % 0.0 in 0.0 W/m2 CLR
00:28 11.1 °F 5.4 °F 1029.3 in SSE 20.4 mph 20.4 mph 68 % 0.0 in 0.0 W/m2 CLR
00:33 10.6 °F 4.9 °F 1029.3 in South 18.5 mph 18.5 mph 68 % 0.0 in 0.0 W/m2 CLR
00:38 10.6 °F 4.9 °F 1029.3 in South 18.5 mph 18.5 mph 68 % 0.0 in 0.0 W/m2 CLR
00:43 10.6 °F 4.9 °F 1029.3 in South 18.5 mph 18.5 mph 68 % 0.0 in 0.0 W/m2 CLR
00:48 10.6 °F 4.9 °F 1029.3 in SSW 16.7 mph 16.7 mph 68 % 0.0 in 0.0 W/m2 CLR
00:53 10.6 °F 4.9 °F 1029.3 in South 18.5 mph 18.5 mph 68 % 0.0 in 0.0 W/m2 CLR
00:58 11.1 °F 5.4 °F 1029.3 in SE 14.8 mph 14.8 mph 68 % 0.0 in 0.0 W/m2 CLR
01:03 11.7 °F 5.9 °F 1029.7 in SSE 5.6 mph 5.6 mph 68 % 0.0 in 0.0 W/m2 CLR
01:08 12.2 °F 6.5 °F 1029.3 in SSE 8.0 mph 8.0 mph 68 % 0.0 in 0.0 W/m2 CLR
01:13 12.2 °F 6.5 °F 1029.3 in South 9.3 mph 9.3 mph 68 % 0.0 in 0.0 W/m2 CLR
01:18 11.7 °F 6.2 °F 1029.3 in SSW 11.1 mph 11.1 mph 69 % 0.0 in 0.0 W/m2 CLR
01:23 11.7 °F 6.2 °F 1029.0 in SSW 14.5 mph 14.5 mph 69 % 0.0 in 0.0 W/m2 CLR
01:28 11.1 °F 5.8 °F 1029.0 in SSW 18.5 mph 18.5 mph 70 % 0.0 in 0.0 W/m2 CLR
01:33 11.1 °F 5.6 °F 1029.0 in SSW 16.7 mph 16.7 mph 69 % 0.0 in 0.0 W/m2 CLR
01:38 11.1 °F 5.6 °F 1029.0 in South 18.5 mph 18.5 mph 69 % 0.0 in 0.0 W/m2 CLR
01:43 11.1 °F 5.6 °F 1029.0 in South 24.1 mph 24.1 mph 69 % 0.0 in 0.0 W/m2 CLR
01:48 11.7 °F 5.9 °F 1029.0 in SE 13.0 mph 13.0 mph 68 % 0.0 in 0.0 W/m2 CLR
01:53 11.7 °F 6.2 °F 1029.0 in South 9.3 mph 9.3 mph 69 % 0.0 in 0.0 W/m2 CLR
01:58 11.7 °F 6.4 °F 1029.0 in South 16.7 mph 16.7 mph 70 % 0.0 in 0.0 W/m2 CLR
02:03 11.1 °F 5.8 °F 1029.0 in South 13.0 mph 13.0 mph 70 % 0.0 in 0.0 W/m2 CLR
02:08 11.1 °F 5.8 °F 1029.0 in SSE 7.4 mph 7.4 mph 70 % 0.0 in 0.0 W/m2 CLR
02:13 10.6 °F 5.3 °F 1029.0 in South 11.1 mph 11.1 mph 70 % 0.0 in 0.0 W/m2 CLR
02:18 10.6 °F 5.5 °F 1029.0 in SSW 14.8 mph 14.8 mph 71 % 0.0 in 0.0 W/m2 CLR
02:23 10.6 °F 5.5 °F 1029.0 in SSW 18.5 mph 18.5 mph 71 % 0.0 in 0.0 W/m2 CLR
02:28 10.6 °F 5.3 °F 1029.0 in South 16.7 mph 16.7 mph 70 % 0.0 in 0.0 W/m2 CLR
02:33 10.6 °F 5.5 °F 1028.7 in SSW 13.0 mph 13.0 mph 71 % 0.0 in 0.0 W/m2 CLR
02:38 10.6 °F 5.5 °F 1028.7 in SSE 13.0 mph 13.0 mph 71 % 0.0 in 0.0 W/m2 CLR
02:43 10.6 °F 5.5 °F 1028.7 in South 18.5 mph 18.5 mph 71 % 0.0 in 0.0 W/m2 CLR
02:48 10.6 °F 5.5 °F 1028.7 in SSW 13.0 mph 13.0 mph 71 % 0.0 in 0.0 W/m2 CLR
02:53 10.0 °F 5.0 °F 1028.7 in SSE 14.8 mph 14.8 mph 71 % 0.0 in 0.0 W/m2 CLR
02:58 10.0 °F 5.0 °F 1028.7 in South 9.3 mph 9.3 mph 71 % 0.0 in 0.0 W/m2 CLR
03:03 10.0 °F 5.2 °F 1028.7 in South 18.5 mph 18.5 mph 72 % 0.0 in 0.0 W/m2 CLR
03:08 9.4 °F 4.4 °F 1028.7 in South 20.4 mph 20.4 mph 71 % 0.0 in 0.0 W/m2 CLR
03:09 9.4 °F 4.4 °F 1028.7 in South 18.5 mph 18.5 mph 71 % 0.0 in 0.0 W/m2 CLR
03:14 9.4 °F 4.4 °F 1028.7 in South 16.7 mph 16.7 mph 71 % 0.0 in 0.0 W/m2 CLR
03:19 10.0 °F 5.0 °F 1028.7 in SSW 16.7 mph 16.7 mph 71 % 0.0 in 0.0 W/m2 CLR
03:24 10.0 °F 5.0 °F 1028.7 in SSW 13.0 mph 13.0 mph 71 % 0.0 in 0.0 W/m2 CLR
03:29 10.0 °F 5.2 °F 1028.7 in SSW 16.7 mph 16.7 mph 72 % 0.0 in 0.0 W/m2 CLR
03:34 10.0 °F 5.2 °F 1028.7 in SSW 16.7 mph 16.7 mph 72 % 0.0 in 0.0 W/m2 CLR
03:39 10.0 °F 5.0 °F 1028.7 in South 14.8 mph 14.8 mph 71 % 0.0 in 0.0 W/m2 CLR
03:44 10.0 °F 5.2 °F 1028.7 in SSW 16.7 mph 16.7 mph 72 % 0.0 in 0.0 W/m2 CLR
03:49 9.4 °F 4.7 °F 1028.7 in South 14.8 mph 14.8 mph 72 % 0.0 in 0.0 W/m2 CLR
03:54 9.4 °F 4.7 °F 1028.7 in South 16.7 mph 16.7 mph 72 % 0.0 in 0.0 W/m2 CLR
03:59 9.4 °F 4.7 °F 1028.7 in South 14.5 mph 14.5 mph 72 % 0.0 in 0.0 W/m2 CLR
04:04 9.4 °F 4.7 °F 1028.7 in South 16.7 mph 16.7 mph 72 % 0.0 in 0.0 W/m2 CLR
04:09 9.4 °F 4.7 °F 1028.7 in South 13.0 mph 13.0 mph 72 % 0.0 in 0.0 W/m2 CLR
04:14 8.9 °F 4.1 °F 1028.7 in South 14.8 mph 14.8 mph 72 % 0.0 in 0.0 W/m2 CLR
04:19 8.9 °F 3.9 °F 1028.7 in SSW 13.0 mph 13.0 mph 71 % 0.0 in 0.0 W/m2 CLR
04:24 8.9 °F 3.9 °F 1028.7 in SSW 13.0 mph 13.0 mph 71 % 0.0 in 0.0 W/m2 CLR
04:29 8.9 °F 3.7 °F 1028.7 in South 11.1 mph 11.1 mph 70 % 0.0 in 0.0 W/m2 CLR
04:34 8.9 °F 3.7 °F 1029.0 in SSE 11.1 mph 11.1 mph 70 % 0.0 in 0.0 W/m2 CLR
04:39 8.3 °F 3.2 °F 1028.7 in SSW 11.1 mph 11.1 mph 70 % 0.0 in 0.0 W/m2 CLR
04:44 8.3 °F 3.2 °F 1028.7 in SSW 9.3 mph 9.3 mph 70 % 0.0 in 0.0 W/m2 CLR
04:49 7.8 °F 2.7 °F 1028.7 in South 13.0 mph 13.0 mph 70 % 0.0 in 0.0 W/m2 CLR
04:54 7.8 °F 2.7 °F 1029.0 in South 9.7 mph 9.7 mph 70 % 0.0 in 0.0 W/m2 CLR
04:59 7.2 °F 2.1 °F 1029.0 in SSE 9.3 mph 9.3 mph 70 % 0.0 in 0.0 W/m2 CLR
05:04 7.2 °F 2.3 °F 1028.7 in South 7.4 mph 7.4 mph 71 % 0.0 in 0.0 W/m2 CLR
05:09 6.7 °F 2.0 °F 1028.7 in South 8.0 mph 8.0 mph 72 % 0.0 in 0.0 W/m2 CLR
05:14 6.7 °F 2.0 °F 1028.7 in South 9.3 mph 9.3 mph 72 % 0.0 in 0.0 W/m2 CLR
05:19 6.1 °F 1.4 °F 1028.7 in SSE 7.4 mph 7.4 mph 72 % 0.0 in 0.0 W/m2 CLR
05:20 6.1 °F 1.4 °F 1028.7 in SSE 8.0 mph 8.0 mph 72 % 0.0 in 0.0 W/m2 CLR
05:25 6.1 °F 1.6 °F 1028.7 in SSE 9.7 mph 9.7 mph 73 % 0.0 in 0.0 W/m2 CLR
05:30 5.6 °F 1.3 °F 1028.7 in South 14.8 mph 14.8 mph 74 % 0.0 in 0.0 W/m2 CLR
05:35 5.6 °F 1.3 °F 1028.7 in South 9.3 mph 9.3 mph 74 % 0.0 in 0.0 W/m2 CLR
05:40 5.6 °F 1.3 °F 1028.7 in South 9.3 mph 9.3 mph 74 % 0.0 in 0.0 W/m2 CLR
05:45 5.0 °F 0.7 °F 1028.7 in South 9.3 mph 9.3 mph 74 % 0.0 in 0.0 W/m2 CLR
05:50 5.0 °F 0.7 °F 1028.7 in South 8.0 mph 8.0 mph 74 % 0.0 in 0.0 W/m2 CLR
05:55 5.0 °F 0.9 °F 1028.7 in SSW 11.1 mph 11.1 mph 75 % 0.0 in 0.0 W/m2 CLR
06:00 5.0 °F 0.7 °F 1029.0 in South 9.3 mph 9.3 mph 74 % 0.0 in 0.0 W/m2 CLR
06:05 5.0 °F 0.6 °F 1028.7 in SSE 8.0 mph 8.0 mph 73 % 0.0 in 0.0 W/m2 CLR
06:10 5.0 °F 0.6 °F 1029.0 in SSE 7.4 mph 7.4 mph 73 % 0.0 in 0.0 W/m2 CLR
06:15 5.0 °F 0.6 °F 1029.0 in SSE 8.0 mph 8.0 mph 73 % 0.0 in 0.0 W/m2 CLR
06:20 5.0 °F 1.1 °F 1029.0 in South 11.3 mph 11.3 mph 76 % 0.0 in 0.0 W/m2 CLR
06:25 5.0 °F 1.1 °F 1029.0 in South 13.0 mph 13.0 mph 76 % 0.0 in 0.0 W/m2 CLR
06:30 5.0 °F 0.9 °F 1029.0 in SSE 8.0 mph 8.0 mph 75 % 0.0 in 0.0 W/m2 CLR
06:35 5.0 °F 0.9 °F 1029.0 in SSE 9.3 mph 9.3 mph 75 % 0.0 in 0.0 W/m2 CLR
06:40 4.4 °F 0.6 °F 1029.0 in South 11.3 mph 11.3 mph 76 % 0.0 in 0.0 W/m2 CLR
06:45 4.4 °F 0.9 °F 1029.0 in South 13.0 mph 13.0 mph 78 % 0.0 in 0.0 W/m2 CLR
06:50 4.4 °F 0.6 °F 1029.0 in South 9.3 mph 9.3 mph 76 % 0.0 in 0.0 W/m2 CLR
06:55 4.4 °F 0.6 °F 1028.7 in South 9.7 mph 9.7 mph 76 % 0.0 in 0.0 W/m2 CLR
07:00 4.4 °F 0.8 °F 1028.7 in South 11.1 mph 11.1 mph 77 % 0.0 in 0.0 W/m2 CLR
07:05 3.9 °F 0.1 °F 1028.7 in South 11.1 mph 11.1 mph 76 % 0.0 in 0.0 W/m2 CLR
07:10 3.9 °F -0.5 °F 1028.7 in South 3.7 mph   73 % 0.0 in 0.0 W/m2 CLR
07:15 3.9 °F -0.3 °F 1028.7 in Calm     74 % 0.0 in 0.0 W/m2 CLR
07:20 3.9 °F 0.1 °F 1029.0 in South 3.2 mph 3.2 mph 76 % 0.0 in 0.0 W/m2 CLR
07:25 3.9 °F 0.8 °F 1029.0 in South 13.0 mph 13.0 mph 80 % 0.0 in 0.0 W/m2 CLR
07:30 3.9 °F 0.4 °F 1029.0 in South 11.1 mph 11.1 mph 78 % 0.0 in 0.0 W/m2 CLR
07:35 3.9 °F 0.1 °F 1029.0 in Calm     76 % 0.0 in 0.0 W/m2 CLR
07:40 3.9 °F 0.2 °F 1029.0 in Calm     77 % 0.0 in 0.0 W/m2 CLR
07:45 3.9 °F 0.6 °F 1029.0 in Calm     79 % 0.0 in 0.0 W/m2 CLR
07:50 3.9 °F 0.8 °F 1029.0 in Calm     80 % 0.0 in 0.0 W/m2 CLR
07:55 3.9 °F 0.9 °F 1029.0 in Calm     81 % 0.0 in 0.0 W/m2 CLR
08:00 3.9 °F 0.9 °F 1029.0 in Calm     81 % 0.0 in 0.0 W/m2 CLR
08:05 3.9 °F 0.9 °F 1029.0 in Calm     81 % 0.0 in 0.0 W/m2 CLR
08:10 3.9 °F 0.9 °F 1029.0 in Calm     81 % 0.0 in 0.0 W/m2 CLR
08:15 3.9 °F 0.9 °F 1029.0 in Calm     81 % 0.0 in 0.0 W/m2 OVC
08:20 3.9 °F 1.3 °F 1029.0 in SSE 8.0 mph 8.0 mph 83 % 0.0 in 0.0 W/m2 OVC
08:25 3.3 °F 0.6 °F 1029.0 in Calm     82 % 0.0 in 7.0 W/m2 BKN
08:30 3.3 °F 0.6 °F 1029.0 in Calm     82 % 0.0 in 9.0 W/m2 BKN
08:35 3.3 °F 0.7 °F 1029.0 in Calm     83 % 0.0 in 12.0 W/m2 BKN
08:40 3.3 °F 0.7 °F 1029.0 in SSE 5.6 mph 5.6 mph 83 % 0.0 in 14.0 W/m2 BKN
08:45 3.3 °F 0.7 °F 1029.0 in Calm     83 % 0.0 in 16.0 W/m2 BKN
08:50 3.3 °F 0.7 °F 1029.3 in Calm     83 % 0.0 in 21.0 W/m2 BKN
09:00 3.3 °F 0.7 °F 1029.0 in Calm     83 % 0.0 in 37.0 W/m2 BKN
09:05 3.3 °F 0.6 °F 1029.3 in Calm     82 % 0.0 in 46.0 W/m2 BKN
09:10 3.3 °F 0.2 °F 1029.3 in Calm     80 % 0.0 in 54.0 W/m2 SCT
09:15 3.9 °F 0.6 °F 1029.3 in Calm     79 % 0.0 in 79.0 W/m2 FEW
09:20 3.9 °F 0.2 °F 1029.3 in Calm     77 % 0.0 in 79.0 W/m2 CLR
09:25 4.4 °F 0.6 °F 1029.3 in Calm     76 % 0.0 in 113.0 W/m2 CLR
09:30 4.4 °F 0.6 °F 1029.3 in Calm     76 % 0.0 in 127.0 W/m2 CLR
09:31 4.4 °F 0.6 °F 1029.3 in Calm     76 % 0.0 in 134.0 W/m2 CLR
09:36 5.0 °F 0.9 °F 1029.3 in Calm     75 % 0.0 in 149.0 W/m2 CLR
09:41 5.6 °F 1.3 °F 1029.7 in Calm     74 % 0.0 in 167.0 W/m2 CLR
09:46 6.1 °F 1.6 °F 1029.7 in Calm     73 % 0.0 in 111.0 W/m2 CLR
09:51 7.2 °F 2.5 °F 1029.7 in Calm     72 % 0.0 in 204.0 W/m2 CLR
09:56 8.3 °F 3.4 °F 1029.7 in Calm     71 % 0.0 in 220.0 W/m2 CLR
10:01 8.9 °F 3.9 °F 1030.0 in Calm     71 % 0.0 in 236.0 W/m2 CLR
10:06 9.4 °F 4.2 °F 1029.7 in Calm     70 % 0.0 in 246.0 W/m2 CLR
10:11 10.0 °F 4.2 °F 1030.0 in South 18.5 mph 18.5 mph 67 % 0.0 in 264.0 W/m2 CLR
10:16 10.6 °F 4.4 °F 1030.0 in SW 18.5 mph 18.5 mph 66 % 0.0 in 279.0 W/m2 CLR
10:21 11.7 °F 5.5 °F 1030.0 in SW 16.7 mph 16.7 mph 66 % 0.0 in 294.0 W/m2 CLR
10:26 12.2 °F 5.8 °F 1029.7 in WSW 19.3 mph 19.3 mph 65 % 0.0 in 306.0 W/m2 CLR
10:31 12.8 °F 6.1 °F 1030.0 in SSW 19.3 mph 19.3 mph 64 % 0.0 in 320.0 W/m2 CLR
10:36 12.8 °F 6.1 °F 1030.0 in SW 19.3 mph 19.3 mph 64 % 0.0 in 334.0 W/m2 CLR
10:41 13.3 °F 6.7 °F 1030.0 in SW 22.2 mph 22.2 mph 64 % 0.0 in 348.0 W/m2 CLR
10:46 13.3 °F 6.4 °F 1029.7 in SW 18.5 mph 18.5 mph 63 % 0.0 in 359.0 W/m2 CLR
10:51 13.3 °F 6.2 °F 1029.7 in SW 25.7 mph 25.7 mph 62 % 0.0 in 371.0 W/m2 CLR
10:56 13.9 °F 6.7 °F 1030.0 in SW 27.4 mph 27.4 mph 62 % 0.0 in 381.0 W/m2 CLR
11:01 13.9 °F 6.7 °F 1030.0 in SW 24.1 mph 24.1 mph 62 % 0.0 in 396.0 W/m2 CLR
11:06 13.9 °F 6.7 °F 1030.0 in SW 18.5 mph 18.5 mph 62 % 0.0 in 406.0 W/m2 CLR
11:11 13.9 °F 6.5 °F 1030.0 in SW 20.9 mph 20.9 mph 61 % 0.0 in 418.0 W/m2 CLR
11:12 13.9 °F 6.5 °F 1030.0 in SW 25.9 mph 25.9 mph 61 % 0.0 in 420.0 W/m2 CLR
11:17 13.9 °F 6.5 °F 1030.0 in SSW 16.7 mph 16.7 mph 61 % 0.0 in 432.0 W/m2 CLR
11:22 14.4 °F 7.0 °F 1030.0 in SSW 20.4 mph 20.4 mph 61 % 0.0 in 443.0 W/m2 CLR
11:27 14.4 °F 6.8 °F 1030.0 in WSW 19.3 mph 19.3 mph 60 % 0.0 in 455.0 W/m2 CLR
11:32 14.4 °F 6.8 °F 1030.0 in SW 20.4 mph 20.4 mph 60 % 0.0 in 464.0 W/m2 CLR
11:33 14.4 °F 6.8 °F 1030.0 in WSW 24.1 mph 24.1 mph 60 % 0.0 in 466.0 W/m2 CLR
11:38 14.4 °F 6.8 °F 1030.0 in SW 24.1 mph 24.1 mph 60 % 0.0 in 476.0 W/m2 CLR
11:43 14.4 °F 6.8 °F 1030.0 in WSW 18.5 mph 18.5 mph 60 % 0.0 in 487.0 W/m2 CLR
11:48 15.0 °F 7.1 °F 1029.7 in WSW 18.5 mph 18.5 mph 59 % 0.0 in 496.0 W/m2 CLR
11:53 15.0 °F 6.8 °F 1029.7 in SSW 18.5 mph 18.5 mph 58 % 0.0 in 503.0 W/m2 CLR
11:58 15.0 °F 7.1 °F 1029.7 in SW 18.5 mph 18.5 mph 59 % 0.0 in 513.0 W/m2 CLR
12:03 15.0 °F 6.6 °F 1029.7 in SW 18.5 mph 19.3 mph 57 % 0.0 in 520.0 W/m2 CLR
12:08 15.6 °F 6.6 °F 1029.7 in SSW 20.4 mph 20.4 mph 55 % 0.0 in 526.0 W/m2 CLR
12:13 15.6 °F 6.8 °F 1029.7 in SW 16.7 mph 16.7 mph 56 % 0.0 in 534.0 W/m2 CLR
12:18 16.1 °F 6.8 °F 1029.7 in SW 29.6 mph 29.6 mph 54 % 0.0 in 545.0 W/m2 CLR
12:23 16.7 °F 7.1 °F 1029.7 in SW 16.7 mph 16.7 mph 53 % 0.0 in 548.0 W/m2 CLR
12:24 16.1 °F 6.5 °F 1029.3 in SSW 22.2 mph 22.2 mph 53 % 0.0 in 550.0 W/m2 CLR
12:29 16.1 °F 6.8 °F 1029.3 in SW 18.5 mph 18.5 mph 54 % 0.0 in 555.0 W/m2 CLR
12:34 16.7 °F 6.8 °F 1029.3 in SSW 14.8 mph 14.8 mph 52 % 0.0 in 563.0 W/m2 CLR
12:39 16.7 °F 6.5 °F 1029.3 in SW 20.4 mph 20.4 mph 51 % 0.0 in 570.0 W/m2 CLR
12:44 17.2 °F 7.0 °F 1029.3 in WSW 22.2 mph 22.2 mph 51 % 0.0 in 573.0 W/m2 CLR
12:50 17.2 °F 6.7 °F 1029.0 in SSW 22.2 mph 22.2 mph 50 % 0.0 in 577.0 W/m2 CLR
12:55 17.2 °F 6.4 °F 1029.0 in WSW 20.4 mph 20.4 mph 49 % 0.0 in 582.0 W/m2 CLR
13:00 17.8 °F 6.6 °F 1029.0 in West 24.1 mph 24.1 mph 48 % 0.0 in 584.0 W/m2 CLR
13:05 17.8 °F 6.6 °F 1028.7 in SSW 20.4 mph 20.4 mph 48 % 0.0 in 591.0 W/m2 CLR
13:10 17.8 °F 6.3 °F 1028.7 in WSW 18.5 mph 18.5 mph 47 % 0.0 in 594.0 W/m2 CLR
13:15 17.8 °F 6.3 °F 1028.7 in SW 22.2 mph 22.2 mph 47 % 0.0 in 596.0 W/m2 CLR
13:20 17.8 °F 6.0 °F 1028.7 in SW 18.5 mph 18.5 mph 46 % 0.0 in 599.0 W/m2 CLR
13:25 18.3 °F 6.2 °F 1028.7 in SW 16.7 mph 16.7 mph 45 % 0.0 in 599.0 W/m2 CLR
13:30 18.3 °F 6.2 °F 1028.7 in SSW 20.4 mph 20.4 mph 45 % 0.0 in 601.0 W/m2 CLR
13:35 18.3 °F 6.2 °F 1028.7 in WSW 18.5 mph 18.5 mph 45 % 0.0 in 605.0 W/m2 CLR
13:40 18.9 °F 6.7 °F 1028.7 in SW 20.9 mph 20.9 mph 45 % 0.0 in 605.0 W/m2 CLR
13:45 18.3 °F 5.8 °F 1028.3 in SSW 18.5 mph 18.5 mph 44 % 0.0 in 603.0 W/m2 CLR
13:50 19.4 °F 6.9 °F 1028.3 in SW 18.5 mph 18.5 mph 44 % 0.0 in 605.0 W/m2 CLR
13:55 19.4 °F 6.6 °F 1028.3 in SW 24.1 mph 24.1 mph 43 % 0.0 in 603.0 W/m2 CLR
14:00 19.4 °F 6.6 °F 1028.3 in WSW 24.1 mph 24.1 mph 43 % 0.0 in 605.0 W/m2 CLR
14:05 19.4 °F 6.6 °F 1028.0 in WSW 20.4 mph 20.4 mph 43 % 0.0 in 601.0 W/m2 CLR
14:10 18.9 °F 6.1 °F 1028.0 in SW 14.8 mph 14.8 mph 43 % 0.0 in 599.0 W/m2 CLR
14:15 19.4 °F 6.6 °F 1028.0 in SSW 22.2 mph 22.2 mph 43 % 0.0 in 599.0 W/m2 CLR
14:20 19.4 °F 5.8 °F 1027.7 in West 13.0 mph 13.0 mph 41 % 0.0 in 598.0 W/m2 CLR
14:25 18.9 °F 4.6 °F 1027.7 in SSW 22.2 mph 22.2 mph 39 % 0.0 in 594.0 W/m2 CLR
14:30 19.4 °F 5.1 °F 1027.7 in SW 20.4 mph 20.4 mph 39 % 0.0 in 592.0 W/m2 CLR
14:35 20.0 °F 6.0 °F 1027.3 in South 7.4 mph 7.4 mph 40 % 0.0 in 585.0 W/m2 CLR
14:40 20.0 °F 5.6 °F 1027.7 in South 18.5 mph 18.5 mph 39 % 0.0 in 580.0 W/m2 CLR
14:45 19.4 °F 5.5 °F 1027.7 in SW 19.3 mph 19.3 mph 40 % 0.0 in 577.0 W/m2 CLR
14:50 20.0 °F 5.6 °F 1027.3 in West 20.4 mph 20.4 mph 39 % 0.0 in 571.0 W/m2 CLR
14:55 20.0 °F 5.6 °F 1027.3 in SW 17.7 mph 17.7 mph 39 % 0.0 in 566.0 W/m2 CLR
15:00 20.0 °F 5.6 °F 1027.3 in WSW 17.7 mph 17.7 mph 39 % 0.0 in 561.0 W/m2 CLR
15:05 20.0 °F 5.6 °F 1027.3 in SW 18.5 mph 18.5 mph 39 % 0.0 in 555.0 W/m2 CLR
15:10 20.0 °F 5.2 °F 1027.3 in SW 14.8 mph 15.0 mph 38 % 0.0 in 550.0 W/m2 CLR
15:15 20.6 °F 6.1 °F 1027.0 in SW 12.9 mph 12.9 mph 39 % 0.0 in 543.0 W/m2 CLR
15:20 20.6 °F 5.7 °F 1027.0 in SW 14.8 mph 14.8 mph 38 % 0.0 in 534.0 W/m2 CLR
15:25 20.6 °F 6.1 °F 1027.0 in WSW 5.6 mph 5.6 mph 39 % 0.0 in 529.0 W/m2 CLR
15:30 20.0 °F 5.2 °F 1027.0 in SW 18.5 mph 18.5 mph 38 % 0.0 in 520.0 W/m2 CLR
15:35 20.6 °F 6.1 °F 1027.0 in SSW 7.4 mph 7.4 mph 39 % 0.0 in 513.0 W/m2 CLR
15:40 20.6 °F 5.3 °F 1027.0 in WSW 14.8 mph 14.8 mph 37 % 0.0 in 506.0 W/m2 CLR
15:45 20.6 °F 5.7 °F 1026.6 in SW 16.7 mph 16.7 mph 38 % 0.0 in 494.0 W/m2 CLR
15:50 20.6 °F 4.9 °F 1026.6 in WSW 24.1 mph 24.1 mph 36 % 0.0 in 485.0 W/m2 CLR
15:55 20.6 °F 4.6 °F 1026.6 in West 22.2 mph 22.2 mph 35 % 0.0 in 478.0 W/m2 CLR
16:00 20.6 °F 4.6 °F 1026.6 in SW 22.2 mph 22.2 mph 35 % 0.0 in 466.0 W/m2 CLR
16:05 20.6 °F 4.9 °F 1026.6 in SW 22.2 mph 22.2 mph 36 % 0.0 in 455.0 W/m2 CLR
16:10 20.6 °F 4.9 °F 1026.6 in WSW 18.5 mph 18.5 mph 36 % 0.0 in 445.0 W/m2 CLR
16:11 20.6 °F 4.9 °F 1026.6 in WSW 18.5 mph 18.5 mph 36 % 0.0 in 445.0 W/m2 CLR
16:16 20.6 °F 4.9 °F 1026.6 in SSW 18.5 mph 18.5 mph 36 % 0.0 in 432.0 W/m2 CLR
16:21 21.1 °F 5.4 °F 1026.6 in WNW 18.5 mph 18.5 mph 36 % 0.0 in 424.0 W/m2 CLR
16:26 20.6 °F 4.1 °F 1026.3 in WSW 20.9 mph 20.9 mph 34 % 0.0 in 411.0 W/m2 CLR
16:31 20.6 °F 4.1 °F 1026.3 in WSW 20.4 mph 20.4 mph 34 % 0.0 in 396.0 W/m2 CLR
16:36 20.6 °F 4.1 °F 1026.3 in WSW 20.4 mph 20.4 mph 34 % 0.0 in 385.0 W/m2 CLR
16:41 20.6 °F 4.1 °F 1026.3 in West 22.2 mph 22.2 mph 34 % 0.0 in 373.0 W/m2 CLR
16:46 20.6 °F 4.1 °F 1026.3 in West 22.2 mph 22.2 mph 34 % 0.0 in 359.0 W/m2 CLR
16:51 20.6 °F 4.1 °F 1026.3 in WSW 25.9 mph 25.9 mph 34 % 0.0 in 350.0 W/m2 CLR
16:56 20.6 °F 4.1 °F 1026.3 in SW 20.4 mph 20.4 mph 34 % 0.0 in 334.0 W/m2 CLR
17:01 20.6 °F 3.7 °F 1026.3 in West 16.7 mph 16.7 mph 33 % 0.0 in 322.0 W/m2 CLR
17:06 20.6 °F 3.3 °F 1026.3 in SW 31.5 mph 31.5 mph 32 % 0.0 in 309.0 W/m2 CLR
17:11 20.6 °F 3.7 °F 1026.3 in WSW 18.5 mph 18.5 mph 33 % 0.0 in 294.0 W/m2 CLR
17:16 20.6 °F 4.1 °F 1026.3 in West 19.3 mph 19.3 mph 34 % 0.0 in 281.0 W/m2 CLR
17:21 20.0 °F 3.7 °F 1026.3 in West 20.9 mph 20.9 mph 34 % 0.0 in 267.0 W/m2 CLR
17:26 20.0 °F 3.7 °F 1026.3 in West 20.4 mph 20.4 mph 34 % 0.0 in 251.0 W/m2 CLR
17:31 19.4 °F 3.6 °F 1026.3 in SW 18.5 mph 18.5 mph 35 % 0.0 in 232.0 W/m2 CLR
17:36 20.0 °F 4.1 °F 1026.3 in WSW 16.7 mph 16.7 mph 35 % 0.0 in 214.0 W/m2 CLR
17:41 19.4 °F 3.6 °F 1026.3 in WSW 18.5 mph 18.5 mph 35 % 0.0 in 199.0 W/m2 CLR
17:46 19.4 °F 3.6 °F 1026.3 in WSW 14.8 mph 14.8 mph 35 % 0.0 in 181.0 W/m2 CLR
17:51 19.4 °F 3.9 °F 1026.3 in WSW 18.5 mph 18.5 mph 36 % 0.0 in 162.0 W/m2 CLR
17:56 19.4 °F 3.6 °F 1026.3 in WSW 18.5 mph 19.0 mph 35 % 0.0 in 151.0 W/m2 CLR
18:01 19.4 °F 3.9 °F 1026.3 in SW 20.4 mph 20.4 mph 36 % 0.0 in 130.0 W/m2 CLR
18:06 18.9 °F 3.9 °F 1026.3 in SW 14.8 mph 14.8 mph 37 % 0.0 in 113.0 W/m2 CLR
18:11 18.9 °F 3.5 °F 1026.3 in SW 22.2 mph 22.2 mph 36 % 0.0 in 100.0 W/m2 CLR
18:16 18.9 °F 3.9 °F 1026.3 in SSW 11.1 mph 11.1 mph 37 % 0.0 in 79.0 W/m2 FEW
18:21 18.9 °F 3.9 °F 1026.3 in SW 1.9 mph   37 % 0.0 in 58.0 W/m2 SCT
18:26 18.9 °F 4.3 °F 1026.3 in SSW 5.6 mph 5.6 mph 38 % 0.0 in 53.0 W/m2 SCT
18:31 18.3 °F 3.8 °F 1026.3 in SW 13.0 mph 13.0 mph 38 % 0.0 in 44.0 W/m2 SCT
18:36 18.3 °F 3.8 °F 1026.3 in South 5.6 mph 5.6 mph 38 % 0.0 in 33.0 W/m2 BKN
18:41 17.8 °F 3.6 °F 1026.3 in SSW 3.7 mph 3.7 mph 39 % 0.0 in 23.0 W/m2 BKN
18:52 15.6 °F 2.3 °F 1026.3 in SSW 3.7 mph 3.7 mph 41 % 0.0 in 11.0 W/m2 BKN
18:57 15.0 °F 1.8 °F 1026.3 in SSW 5.6 mph 5.6 mph 41 % 0.0 in 9.0 W/m2 BKN
19:03 14.4 °F 1.7 °F 1026.3 in SSW 5.6 mph 5.6 mph 42 % 0.0 in 7.0 W/m2 BKN
19:07 13.9 °F 1.2 °F 1026.3 in SSW 1.9 mph   42 % 0.0 in 5.0 W/m2 OVC
19:13 13.3 °F 1.0 °F 1026.3 in Calm     43 % 0.0 in 0.0 W/m2 OVC
19:18 13.3 °F 1.3 °F 1026.3 in Calm     44 % 0.0 in 0.0 W/m2 CLR
19:23 12.8 °F 1.1 °F 1026.3 in Calm     45 % 0.0 in 0.0 W/m2 CLR
19:28 12.2 °F 0.6 °F 1026.3 in Calm     45 % 0.0 in 0.0 W/m2 CLR
19:33 12.2 °F 0.9 °F 1026.3 in Calm     46 % 0.0 in 0.0 W/m2 CLR
19:38 11.7 °F 0.4 °F 1026.6 in Calm     46 % 0.0 in 0.0 W/m2 CLR
19:43 11.7 °F 0.7 °F 1026.6 in Calm     47 % 0.0 in 0.0 W/m2 CLR
19:48 11.7 °F 0.7 °F 1026.6 in Calm     47 % 0.0 in 0.0 W/m2 CLR
19:53 11.1 °F 0.5 °F 1026.6 in Calm     48 % 0.0 in 0.0 W/m2 CLR
19:58 11.1 °F 0.8 °F 1026.6 in Calm     49 % 0.0 in 0.0 W/m2 CLR
20:03 10.6 °F 0.6 °F 1026.6 in Calm     50 % 0.0 in 0.0 W/m2 CLR
20:08 10.6 °F 0.6 °F 1026.6 in Calm     50 % 0.0 in 0.0 W/m2 CLR
20:13 10.0 °F 0.3 °F 1026.6 in Calm     51 % 0.0 in 0.0 W/m2 CLR
20:18 10.0 °F 0.6 °F 1026.6 in Calm     52 % 0.0 in 0.0 W/m2 CLR
20:23 9.4 °F 0.3 °F 1026.6 in Calm     53 % 0.0 in 0.0 W/m2 CLR
20:28 9.4 °F 0.6 °F 1027.0 in Calm     54 % 0.0 in 0.0 W/m2 CLR
20:33 9.4 °F 0.6 °F 1027.0 in Calm     54 % 0.0 in 0.0 W/m2 CLR
20:38 8.9 °F 0.1 °F 1027.0 in Calm     54 % 0.0 in 0.0 W/m2 CLR
20:43 8.9 °F 0.1 °F 1027.0 in Calm     54 % 0.0 in 0.0 W/m2 CLR
20:48 8.9 °F 0.3 °F 1027.0 in Calm     55 % 0.0 in 0.0 W/m2 CLR
20:53 8.9 °F 0.3 °F 1027.0 in Calm     55 % 0.0 in 0.0 W/m2 CLR
20:58 8.3 °F -0.2 °F 1027.0 in Calm     55 % 0.0 in 0.0 W/m2 CLR
21:03 8.3 °F 0.3 °F 1027.0 in Calm     57 % 0.0 in 0.0 W/m2 CLR
21:08 8.3 °F 0.3 °F 1027.0 in Calm     57 % 0.0 in 0.0 W/m2 CLR
21:13 8.3 °F 0.6 °F 1027.0 in Calm     58 % 0.0 in 0.0 W/m2 CLR
21:18 8.9 °F 1.3 °F 1027.0 in Calm     59 % 0.0 in 0.0 W/m2 CLR
21:23 9.4 °F 1.8 °F 1027.0 in Calm     59 % 0.0 in 0.0 W/m2 CLR
21:28 9.4 °F 1.8 °F 1027.0 in Calm     59 % 0.0 in 0.0 W/m2 CLR
21:33 9.4 °F 1.8 °F 1027.0 in Calm     59 % 0.0 in 0.0 W/m2 CLR
21:38 9.4 °F 1.8 °F 1027.0 in Calm     59 % 0.0 in 0.0 W/m2 CLR
21:43 9.4 °F 2.1 °F 1027.0 in Calm     60 % 0.0 in 0.0 W/m2 CLR
21:48 8.9 °F 1.3 °F 1027.0 in Calm     59 % 0.0 in 0.0 W/m2 CLR
21:53 9.4 °F 2.1 °F 1027.0 in Calm     60 % 0.0 in 0.0 W/m2 CLR
21:58 9.4 °F 2.1 °F 1027.0 in Calm     60 % 0.0 in 0.0 W/m2 CLR
22:03 8.9 °F 1.6 °F 1027.0 in Calm     60 % 0.0 in 0.0 W/m2 CLR
22:08 8.9 °F 1.6 °F 1027.0 in Calm     60 % 0.0 in 0.0 W/m2 CLR
22:13 8.9 °F 1.6 °F 1027.0 in Calm     60 % 0.0 in 0.0 W/m2 CLR
22:18 8.9 °F 1.6 °F 1027.0 in Calm     60 % 0.0 in 0.0 W/m2 CLR
22:19 8.9 °F 1.6 °F 1027.0 in Calm     60 % 0.0 in 0.0 W/m2 CLR
22:24 8.9 °F 1.6 °F 1027.0 in Calm     60 % 0.0 in 0.0 W/m2 CLR
22:29 8.9 °F 1.6 °F 1027.0 in Calm     60 % 0.0 in 0.0 W/m2 CLR
22:34 8.3 °F 1.0 °F 1027.0 in Calm     60 % 0.0 in 0.0 W/m2 CLR
22:39 8.3 °F 0.8 °F 1027.0 in Calm     59 % 0.0 in 0.0 W/m2 CLR
22:44 8.3 °F 0.6 °F 1027.3 in Calm     58 % 0.0 in 0.0 W/m2 CLR
22:49 8.3 °F 0.1 °F 1027.3 in Calm     56 % 0.0 in 0.0 W/m2 CLR
22:54 8.3 °F 0.1 °F 1027.3 in Calm     56 % 0.0 in 0.0 W/m2 CLR
22:59 7.8 °F -0.4 °F 1027.3 in Calm     56 % 0.0 in 0.0 W/m2 CLR
23:04 7.8 °F -0.7 °F 1027.3 in Calm     55 % 0.0 in 0.0 W/m2 CLR
23:09 7.8 °F -0.7 °F 1027.3 in Calm     55 % 0.0 in 0.0 W/m2 CLR
23:14 7.8 °F -0.7 °F 1027.3 in Calm     55 % 0.0 in 0.0 W/m2 CLR
23:19 7.8 °F -0.7 °F 1027.3 in Calm     55 % 0.0 in 0.0 W/m2 CLR
23:24 7.2 °F -1.2 °F 1027.3 in Calm     55 % 0.0 in 0.0 W/m2 CLR
23:29 7.2 °F -1.5 °F 1027.7 in Calm     54 % 0.0 in 0.0 W/m2 CLR
23:34 7.2 °F -1.2 °F 1027.7 in Calm     55 % 0.0 in 0.0 W/m2 CLR
23:39 7.2 °F -1.2 °F 1027.7 in Calm     55 % 0.0 in 0.0 W/m2 CLR
23:44 7.2 °F -1.0 °F 1027.7 in Calm     56 % 0.0 in 0.0 W/m2 CLR
23:49 6.7 °F -1.3 °F 1027.7 in Calm     57 % 0.0 in 0.0 W/m2 CLR
23:54 6.7 °F -1.5 °F 1027.7 in Calm     56 % 0.0 in 0.0 W/m2 CLR
23:59 6.7 °F -1.3 °F 1027.7 in Calm     57 % 0.0 in 0.0 W/m2 CLR
Lo Temps de Massalio
Compliments of Weather Underground - 1.25 mb